Time;durP1;ratioP1;P1;durP2;ratioP2;P2;SDS_P1;SDS_P2;PMS_P1;PMS_P2;Temp;Humidity;BMP_temperature;BMP_pressure;BME280_temperature;BME280_humidity;BME280_pressure;Samples;Min_cycle;Max_cycle;Signal;HPM_P1;HPM_P2
2023/05/31 00:00:09;;;;;;;8.30;7.15;;;;;;;10.65;98.48;102575.22;5093389;28;20020;-80
2023/05/31 00:02:34;;;;;;;7.95;6.80;;;;;;;10.43;98.52;102546.72;5093155;28;20039;-83
2023/05/31 00:05:00;;;;;;;8.98;7.25;;;;;;;10.56;98.71;102574.66;5093352;28;20028;-80
2023/05/31 00:07:25;;;;;;;9.30;7.50;;;;;;;10.52;99.09;102569.63;5093398;28;20023;-82
2023/05/31 00:09:51;;;;;;;9.82;7.30;;;;;;;10.56;98.97;102581.56;5093168;28;20056;-81
2023/05/31 00:12:16;;;;;;;9.02;7.47;;;;;;;10.46;99.11;102557.78;5093063;28;20107;-82
2023/05/31 00:14:41;;;;;;;9.27;7.50;;;;;;;10.46;99.72;102559.53;5092907;28;20024;-82
2023/05/31 00:17:07;;;;;;;8.77;7.10;;;;;;;10.48;99.79;102568.91;5093286;28;20031;-81
2023/05/31 00:19:32;;;;;;;8.60;6.72;;;;;;;10.51;99.75;102573.94;5093202;28;20016;-81
2023/05/31 00:21:57;;;;;;;8.80;7.60;;;;;;;10.41;100.00;102559.69;5073973;28;20039;-81
2023/05/31 00:24:23;;;;;;;13.38;8.00;;;;;;;10.39;100.00;102561.47;5074548;28;20111;-81
2023/05/31 00:26:48;;;;;;;10.93;7.40;;;;;;;10.44;100.00;102572.50;5074715;28;20024;-81
2023/05/31 00:29:13;;;;;;;9.95;7.78;;;;;;;10.42;100.00;102574.31;5092911;28;20032;-80
2023/05/31 00:31:40;;;;;;;10.10;7.68;;;;;;;10.20;100.00;102550.06;5092939;28;20078;-78
2023/05/31 00:34:06;;;;;;;9.82;7.47;;;;;;;10.38;100.00;102571.88;5092817;28;20040;-81
2023/05/31 00:36:33;;;;;;;10.93;7.05;;;;;;;10.26;100.00;102552.47;5092893;28;20023;-80
2023/05/31 00:38:58;;;;;;;9.45;7.35;;;;;;;10.36;100.00;102568.50;5092674;28;20086;-81
2023/05/31 00:41:23;;;;;;;9.15;7.30;;;;;;;10.21;100.00;102549.16;5092762;28;20023;-80
2023/05/31 00:43:48;;;;;;;10.63;7.30;;;;;;;10.21;100.00;102550.00;5092683;28;20491;-79
2023/05/31 00:46:30;;;;;;;12.43;7.82;;;;;;;10.29;100.00;102575.59;5092608;28;20048;-83
2023/05/31 00:48:55;;;;;;;10.70;6.95;;;;;;;10.30;100.00;102572.97;5091893;28;20123;-81
2023/05/31 00:51:22;;;;;;;9.30;6.93;;;;;;;10.28;100.00;102579.06;5092702;28;20352;-74
2023/05/31 00:53:47;;;;;;;10.52;7.00;;;;;;;10.26;100.00;102583.47;5092540;28;20071;-79
2023/05/31 00:56:15;;;;;;;10.90;7.47;;;;;;;10.22;100.00;102572.38;5092594;28;20035;-78
2023/05/31 00:58:41;;;;;;;9.63;7.10;;;;;;;10.24;100.00;102580.94;5092224;28;20099;-81
2023/05/31 01:01:07;;;;;;;9.35;7.13;;;;;;;10.22;100.00;102580.09;5092544;28;20028;-81
2023/05/31 01:03:33;;;;;;;11.77;7.28;;;;;;;10.20;100.00;102583.63;5092580;28;20434;-81
2023/05/31 01:06:00;;;;;;;9.65;7.30;;;;;;;10.06;100.00;102569.44;5092270;28;20108;-81
2023/05/31 01:08:26;;;;;;;8.15;6.80;;;;;;;10.19;100.00;102587.09;5092591;28;20035;-80
2023/05/31 01:10:57;;;;;;;10.70;7.28;;;;;;;10.17;100.00;102587.16;5092641;28;20035;-81
2023/05/31 01:13:43;;;;;;;9.35;6.95;;;;;;;10.16;100.00;102588.03;5092059;28;20411;-81
2023/05/31 01:16:18;;;;;;;9.98;7.28;;;;;;;10.11;100.00;102573.59;5092583;28;20082;-81
2023/05/31 01:19:00;;;;;;;9.43;7.00;;;;;;;10.05;100.00;102566.91;5092561;28;20467;-81
2023/05/31 01:21:52;;;;;;;9.30;7.15;;;;;;;9.99;100.00;102557.63;5092391;28;20028;-81
2023/05/31 01:24:26;;;;;;;10.93;7.38;;;;;;;9.84;100.00;102545.22;5076038;28;20056;-79
2023/05/31 01:26:55;;;;;;;8.43;6.60;;;;;;;9.77;100.00;102539.41;5092513;28;20024;-81
2023/05/31 01:29:26;;;;;;;11.20;7.82;;;;;;;9.99;100.00;102580.84;5074289;28;20020;-81
2023/05/31 01:31:52;;;;;;;11.60;8.02;;;;;;;9.99;100.00;102583.44;5092293;28;20019;-80
2023/05/31 01:34:18;;;;;;;9.45;7.43;;;;;;;9.79;100.00;102560.00;5092071;28;20098;-79
2023/05/31 01:36:43;;;;;;;9.77;7.63;;;;;;;9.87;100.00;102568.34;5092270;28;20493;-77
2023/05/31 01:39:10;;;;;;;11.60;8.07;;;;;;;9.92;100.00;102583.66;5092254;28;20551;-75
2023/05/31 01:41:42;;;;;;;10.05;8.38;;;;;;;9.67;100.00;102547.50;5092272;28;20023;-76
2023/05/31 01:44:09;;;;;;;11.05;8.25;;;;;;;9.71;100.00;102554.25;5091965;28;20103;-80
2023/05/31 01:46:34;;;;;;;11.43;8.45;;;;;;;9.84;100.00;102559.88;5092176;28;20035;-80
2023/05/31 01:49:00;;;;;;;12.30;8.50;;;;;;;9.89;100.00;102578.63;5091893;28;20023;-81
2023/05/31 01:51:28;;;;;;;11.93;7.93;;;;;;;9.63;100.00;102540.72;5092002;28;20099;-81
2023/05/31 01:53:53;;;;;;;11.07;8.68;;;;;;;9.66;100.00;102549.25;5073501;28;20486;-80
2023/05/31 01:56:20;;;;;;;12.50;7.72;;;;;;;9.80;100.00;102561.69;5092067;28;20027;-79
2023/05/31 01:58:48;;;;;;;9.43;7.68;;;;;;;9.69;100.00;102548.28;5091972;28;20020;-80
2023/05/31 02:01:16;;;;;;;10.20;8.50;;;;;;;9.72;100.00;102569.66;5094088;28;20090;-81
2023/05/31 02:03:42;;;;;;;10.20;8.38;;;;;;;9.64;100.00;102555.34;5095328;28;20435;-81
2023/05/31 02:06:07;;;;;;;10.90;8.15;;;;;;;9.57;100.00;102539.22;5095543;28;20052;-81
2023/05/31 02:08:32;;;;;;;11.38;8.32;;;;;;;9.72;100.00;102561.09;5095524;28;20460;-81
2023/05/31 02:10:58;;;;;;;13.00;8.20;;;;;;;9.65;100.00;102551.88;5076764;28;20072;-81
2023/05/31 02:13:27;;;;;;;11.25;8.40;;;;;;;9.67;100.00;102557.81;5095309;28;20024;-81
2023/05/31 02:15:54;;;;;;;10.80;8.38;;;;;;;9.65;100.00;102554.44;5095314;28;20054;-81
2023/05/31 02:18:19;;;;;;;15.52;9.10;;;;;;;9.65;100.00;102550.13;5095376;28;20063;-81
2023/05/31 02:20:45;;;;;;;11.55;8.30;;;;;;;9.65;100.00;102552.72;5095299;28;20055;-82
2023/05/31 02:23:10;;;;;;;11.45;8.07;;;;;;;9.64;100.00;102551.03;5095611;28;20095;-78
2023/05/31 02:25:36;;;;;;;12.23;9.15;;;;;;;9.61;100.00;102545.94;5095391;28;20054;-81
2023/05/31 02:28:01;;;;;;;10.73;8.55;;;;;;;9.65;100.00;102552.72;5095374;28;20372;-80
2023/05/31 02:30:27;;;;;;;13.25;9.60;;;;;;;9.58;100.00;102542.63;5094821;28;20016;-82
2023/05/31 02:32:53;;;;;;;13.40;9.07;;;;;;;9.50;100.00;102535.13;5095281;28;20105;-82
2023/05/31 02:35:19;;;;;;;11.15;8.60;;;;;;;9.54;100.00;102553.91;5094832;28;20044;-80
2023/05/31 02:37:46;;;;;;;13.25;8.95;;;;;;;9.54;100.00;102554.78;5094956;28;20126;-81
2023/05/31 02:40:13;;;;;;;11.75;8.90;;;;;;;9.53;100.00;102549.66;5095124;28;20053;-82
2023/05/31 02:42:40;;;;;;;11.55;9.13;;;;;;;9.50;100.00;102548.03;5095018;28;20591;-82
2023/05/31 02:45:09;;;;;;;11.38;8.75;;;;;;;9.16;100.00;102501.81;5111739;28;20122;-82
2023/05/31 02:47:36;;;;;;;12.60;9.55;;;;;;;9.45;100.00;102549.91;5115296;28;20020;-81
2023/05/31 02:50:02;;;;;;;16.95;9.80;;;;;;;9.45;100.00;102555.91;5115088;28;20020;-80
2023/05/31 02:52:27;;;;;;;13.40;9.93;;;;;;;9.45;100.00;102548.19;5115136;28;20474;-81
2023/05/31 02:54:52;;;;;;;11.80;8.75;;;;;;;9.43;100.00;102556.81;5097078;28;20463;-81
2023/05/31 02:57:18;;;;;;;14.07;10.30;;;;;;;9.40;100.00;102555.19;5115234;28;20055;-81
2023/05/31 02:59:46;;;;;;;14.00;9.93;;;;;;;9.37;100.00;102551.88;5114842;28;20442;-81
2023/05/31 03:02:11;;;;;;;14.13;9.43;;;;;;;9.37;100.00;102551.88;5096717;28;20031;-82
2023/05/31 03:04:37;;;;;;;16.50;9.82;;;;;;;9.37;100.00;102552.72;5114887;28;20089;-82
2023/05/31 03:07:03;;;;;;;14.40;9.50;;;;;;;9.26;100.00;102534.16;5114867;28;20023;-82
2023/05/31 03:09:28;;;;;;;13.43;9.57;;;;;;;9.34;100.00;102552.81;5114790;28;20032;-82
2023/05/31 03:11:53;;;;;;;15.32;10.23;;;;;;;9.30;100.00;102552.94;5095512;28;20376;-82
2023/05/31 03:14:19;;;;;;;13.20;9.48;;;;;;;9.28;100.00;102558.16;5114558;28;20024;-81
2023/05/31 03:16:45;;;;;;;16.17;10.60;;;;;;;9.32;100.00;102557.16;5114822;28;20516;-82
2023/05/31 03:19:12;;;;;;;15.27;10.15;;;;;;;9.29;100.00;102553.84;5114707;28;20035;-82
2023/05/31 03:21:37;;;;;;;13.27;9.95;;;;;;;9.27;100.00;102564.19;5114607;28;20478;-82
2023/05/31 03:24:03;;;;;;;13.73;10.40;;;;;;;9.27;100.00;102556.47;5114589;28;20042;-82
2023/05/31 03:26:28;;;;;;;15.63;11.10;;;;;;;9.27;100.00;102555.63;5114336;28;20020;-82
2023/05/31 03:28:54;;;;;;;15.30;10.27;;;;;;;9.24;100.00;102558.28;5114561;28;20502;-82
2023/05/31 03:31:19;;;;;;;15.10;10.60;;;;;;;9.25;100.00;102560.81;5114308;28;20026;-82
2023/05/31 03:33:44;;;;;;;15.60;11.30;;;;;;;9.23;100.00;102549.69;5114056;28;20054;-82
2023/05/31 03:36:10;;;;;;;14.85;10.55;;;;;;;9.04;100.00;102530.50;5114136;28;20137;-81
2023/05/31 03:38:36;;;;;;;15.48;11.07;;;;;;;9.23;100.00;102556.59;5114397;28;20039;-81
2023/05/31 03:41:01;;;;;;;16.80;11.13;;;;;;;9.03;100.00;102505.63;5114246;28;20059;-81
2023/05/31 03:43:26;;;;;;;14.95;11.35;;;;;;;9.15;100.00;102531.06;5095084;28;20036;-80
2023/05/31 03:45:52;;;;;;;16.13;10.95;;;;;;;9.27;100.00;102543.56;5114220;28;20582;-82
2023/05/31 03:48:17;;;;;;;16.95;11.15;;;;;;;9.27;100.00;102543.56;5095713;28;20036;-82
2023/05/31 03:50:44;;;;;;;17.05;11.38;;;;;;;9.28;100.00;102540.09;5113928;28;20471;-82
2023/05/31 03:53:09;;;;;;;18.60;10.75;;;;;;;9.29;100.00;102538.38;5113799;28;20031;-81
2023/05/31 03:55:36;;;;;;;17.67;11.38;;;;;;;9.33;100.00;102553.69;5095531;28;20467;-82
2023/05/31 03:58:02;;;;;;;18.45;11.93;;;;;;;9.28;100.00;102534.09;5114012;28;20383;-82
2023/05/31 04:00:27;;;;;;;16.10;12.25;;;;;;;9.41;100.00;102543.16;5113887;28;20027;-81
2023/05/31 04:02:53;;;;;;;20.88;12.27;;;;;;;9.42;100.00;102543.09;5113909;28;20097;-81
2023/05/31 04:05:18;;;;;;;17.75;11.05;;;;;;;9.46;100.00;102549.88;5113661;28;20016;-80
2023/05/31 04:07:43;;;;;;;16.35;11.70;;;;;;;9.48;100.00;102549.81;5113631;28;20031;-82
2023/05/31 04:10:09;;;;;;;17.92;11.65;;;;;;;9.48;100.00;102535.19;5113509;28;20020;-82
2023/05/31 04:12:34;;;;;;;17.70;12.10;;;;;;;9.34;100.00;102502.97;5113508;28;20028;-82
2023/05/31 04:15:00;;;;;;;19.48;12.13;;;;;;;9.48;100.00;102519.72;5113383;28;20364;-82
2023/05/31 04:17:26;;;;;;;19.75;12.15;;;;;;;9.67;100.00;102548.34;5113405;28;20027;-82
2023/05/31 04:19:52;;;;;;;18.05;11.38;;;;;;;9.70;100.00;102543.06;5113441;28;20028;-80
2023/05/31 04:22:17;;;;;;;19.38;12.05;;;;;;;9.71;100.00;102531.03;5113196;28;20489;-81
2023/05/31 04:24:43;;;;;;;19.00;12.20;;;;;;;9.92;100.00;102545.81;5113230;28;20027;-82
2023/05/31 04:27:08;;;;;;;18.48;12.13;;;;;;;10.00;100.00;102548.13;5113534;28;20031;-81
2023/05/31 04:29:33;;;;;;;17.23;12.07;;;;;;;9.94;100.00;102517.41;5095276;28;20015;-82
2023/05/31 04:31:59;;;;;;;18.02;11.68;;;;;;;10.19;100.00;102553.53;5113009;28;20030;-82
2023/05/31 04:34:26;;;;;;;17.75;11.88;;;;;;;10.25;100.00;102553.38;5094866;28;20043;-80
2023/05/31 04:36:52;;;;;;;16.48;11.68;;;;;;;10.21;100.00;102536.25;5113133;28;20023;-82
2023/05/31 04:39:19;;;;;;;18.92;12.35;;;;;;;10.28;100.00;102545.50;5094397;28;20074;-81
2023/05/31 04:41:45;;;;;;;16.70;12.25;;;;;;;10.30;100.00;102554.03;5113218;28;20020;-80
2023/05/31 04:44:11;;;;;;;18.05;12.20;;;;;;;10.33;100.00;102546.22;5113055;28;20032;-81
2023/05/31 04:46:40;;;;;;;18.73;12.35;;;;;;;10.37;100.00;102547.78;5112839;28;20482;-81
2023/05/31 04:49:06;;;;;;;17.60;11.98;;;;;;;10.40;100.00;102546.81;5094821;28;20084;-80
2023/05/31 04:51:32;;;;;;;21.48;13.30;;;;;;;10.35;100.00;102544.41;5112851;28;20107;-81
2023/05/31 04:53:58;;;;;;;19.20;12.98;;;;;;;10.32;100.00;102529.88;5112869;28;20028;-80
2023/05/31 04:56:25;;;;;;;17.02;12.40;;;;;;;10.48;100.00;102552.56;5113304;28;20023;-82
2023/05/31 04:58:50;;;;;;;19.30;12.90;;;;;;;10.60;100.00;102560.72;5113030;28;20068;-81
2023/05/31 05:01:16;;;;;;;18.25;12.85;;;;;;;10.47;100.00;102519.88;5112897;28;20425;-81
2023/05/31 05:03:41;;;;;;;20.85;12.52;;;;;;;10.80;100.00;102541.06;5113197;28;20028;-81
2023/05/31 05:06:18;;;;;;;18.85;12.40;;;;;;;11.19;100.00;102549.94;5113021;28;20027;-81
2023/05/31 05:08:44;;;;;;;17.83;12.50;;;;;;;11.47;100.00;102536.78;5112884;28;20478;-82
2023/05/31 05:11:10;;;;;;;18.48;11.13;;;;;;;11.87;100.00;102557.66;5113137;28;20020;-80
2023/05/31 05:13:36;;;;;;;17.35;11.25;;;;;;;12.11;100.00;102566.19;5112879;28;20493;-81
2023/05/31 05:16:02;;;;;;;15.85;11.23;;;;;;;12.23;100.00;102553.56;5113008;28;20024;-81
2023/05/31 05:18:28;;;;;;;17.77;11.73;;;;;;;12.50;100.00;102555.88;5112836;28;20015;-80
2023/05/31 05:20:54;;;;;;;15.15;10.98;;;;;;;12.77;99.92;102551.19;5113119;28;20054;-86
2023/05/31 05:23:19;;;;;;;14.50;9.65;;;;;;;13.11;98.19;102547.94;5112795;28;20402;-86
2023/05/31 05:25:45;;;;;;;17.23;10.68;;;;;;;13.49;95.39;102562.59;5112684;28;20030;-85
2023/05/31 05:28:10;;;;;;;10.93;7.30;;;;;;;14.14;94.73;102543.84;5112704;28;20098;-79
2023/05/31 05:30:36;;;;;;;12.20;8.15;;;;;;;15.05;89.91;102554.66;5112692;28;20034;-79
2023/05/31 05:33:01;;;;;;;11.05;7.30;;;;;;;15.67;85.51;102529.50;5093732;28;20078;-79
2023/05/31 05:35:26;;;;;;;13.90;9.45;;;;;;;16.51;79.19;102560.19;5113832;28;20047;-79
2023/05/31 05:37:52;;;;;;;14.13;9.25;;;;;;;17.00;76.57;102570.25;5116584;28;20028;-79
2023/05/31 05:40:19;;;;;;;13.40;8.93;;;;;;;17.54;73.34;102557.25;5116998;28;20024;-77
2023/05/31 05:42:44;;;;;;;15.85;8.95;;;;;;;18.26;70.03;102579.47;5116622;28;20111;-79
2023/05/31 05:45:10;;;;;;;11.70;8.32;;;;;;;18.49;69.36;102552.59;5116318;28;20098;-79
2023/05/31 05:47:35;;;;;;;12.25;7.72;;;;;;;19.26;65.72;102566.34;5080915;28;20032;-79
2023/05/31 05:50:02;;;;;;;11.68;7.95;;;;;;;19.61;64.03;102571.69;5116499;28;20027;-80
2023/05/31 05:52:27;;;;;;;12.68;8.60;;;;;;;20.12;60.94;102579.22;5116307;28;20084;-80
2023/05/31 05:54:52;;;;;;;15.77;9.15;;;;;;;20.80;59.44;102573.09;5116204;28;20023;-80
2023/05/31 05:57:19;;;;;;;12.98;8.07;;;;;;;21.09;58.14;102575.22;5116208;28;20032;-80
2023/05/31 05:59:44;;;;;;;11.90;7.75;;;;;;;21.67;55.70;102567.88;5116366;28;20019;-81
2023/05/31 06:02:10;;;;;;;14.85;9.40;;;;;;;21.77;53.18;102574.88;5115753;28;20559;-76
2023/05/31 06:04:36;;;;;;;14.25;8.95;;;;;;;21.51;53.25;102565.69;5116192;28;20073;-77
2023/05/31 06:07:01;;;;;;;13.68;8.98;;;;;;;21.72;53.92;102552.53;5116100;28;20471;-78
2023/05/31 06:09:27;;;;;;;12.95;8.98;;;;;;;22.22;52.88;102577.31;5114916;28;20405;-77
2023/05/31 06:11:52;;;;;;;14.68;9.82;;;;;;;21.77;52.38;102581.94;5116875;28;20024;-78
2023/05/31 06:14:17;;;;;;;13.52;8.65;;;;;;;21.57;52.74;102578.31;5097127;28;20031;-80
2023/05/31 06:16:43;;;;;;;12.35;8.90;;;;;;;21.59;53.02;102570.31;5115879;28;20027;-81
2023/05/31 06:19:09;;;;;;;12.52;8.05;;;;;;;21.82;53.67;102573.66;5097497;28;20390;-80
2023/05/31 06:21:35;;;;;;;11.55;8.63;;;;;;;22.24;51.44;102566.63;5115809;28;20024;-81
2023/05/31 06:24:02;;;;;;;13.38;8.20;;;;;;;22.65;51.84;102567.50;5115637;28;20019;-82
2023/05/31 06:26:27;;;;;;;12.32;7.45;;;;;;;23.11;49.94;102562.53;5115824;28;20030;-81
2023/05/31 06:28:52;;;;;;;15.02;9.27;;;;;;;23.51;48.10;102550.22;5115750;28;20028;-80
2023/05/31 06:31:18;;;;;;;11.18;7.90;;;;;;;23.96;46.59;102556.56;5115520;28;20023;-81
2023/05/31 06:33:43;;;;;;;14.45;10.25;;;;;;;23.56;46.70;102554.06;5115162;28;20035;-81
2023/05/31 06:36:09;;;;;;;16.88;8.73;;;;;;;23.27;47.53;102569.88;5115464;28;20081;-80
2023/05/31 06:38:34;;;;;;;15.50;9.43;;;;;;;23.39;47.02;102567.94;5115642;28;20030;-78
2023/05/31 06:41:00;;;;;;;14.65;9.55;;;;;;;23.32;47.22;102574.75;5115154;28;20023;-76
2023/05/31 06:43:25;;;;;;;12.60;8.90;;;;;;;23.18;46.92;102574.19;5115596;28;20043;-80
2023/05/31 06:45:50;;;;;;;12.38;9.13;;;;;;;23.21;47.08;102580.16;5115242;28;20058;-81
2023/05/31 06:48:16;;;;;;;12.75;7.53;;;;;;;23.57;47.47;102582.09;5115014;28;20019;-77
2023/05/31 06:50:41;;;;;;;12.88;8.55;;;;;;;24.04;45.59;102559.31;5115332;28;20027;-80
2023/05/31 06:53:09;;;;;;;13.77;9.73;;;;;;;24.38;44.51;102574.66;5115072;28;20481;-79
2023/05/31 06:55:34;;;;;;;11.90;8.02;;;;;;;25.10;43.68;102567.78;5115142;28;20023;-78
2023/05/31 06:58:00;;;;;;;11.55;8.15;;;;;;;25.79;41.85;102542.47;5114783;28;20074;-78
2023/05/31 07:00:25;;;;;;;13.32;8.48;;;;;;;25.23;42.72;102568.25;5115088;28;20024;-79
2023/05/31 07:02:51;;;;;;;12.63;8.68;;;;;;;25.68;42.59;102567.31;5114259;28;20024;-78
2023/05/31 07:05:16;;;;;;;11.23;8.20;;;;;;;25.77;42.69;102573.53;5114832;28;20038;-79
2023/05/31 07:07:42;;;;;;;11.40;7.80;;;;;;;26.00;41.17;102554.34;5115901;28;20020;-80
2023/05/31 07:10:08;;;;;;;14.75;8.82;;;;;;;26.40;40.58;102579.41;5114762;28;20115;-80
2023/05/31 07:12:33;;;;;;;14.82;8.45;;;;;;;26.41;39.00;102575.78;5114470;28;20016;-79
2023/05/31 07:14:58;;;;;;;11.52;8.32;;;;;;;25.42;41.94;102576.03;5115099;28;20107;-80
2023/05/31 07:17:24;;;;;;;12.27;8.32;;;;;;;25.18;41.75;102578.47;5114666;28;20042;-75
2023/05/31 07:19:50;;;;;;;14.05;7.93;;;;;;;24.83;42.65;102568.63;5114282;28;20385;-79
2023/05/31 07:22:17;;;;;;;12.02;8.43;;;;;;;24.30;43.17;102572.72;5114558;28;20048;-79
2023/05/31 07:24:43;;;;;;;11.07;8.23;;;;;;;24.53;43.62;102573.22;5114489;28;20073;-79
2023/05/31 07:27:09;;;;;;;12.35;7.68;;;;;;;24.81;43.71;102547.63;5114445;28;20096;-78
2023/05/31 07:29:35;;;;;;;13.95;8.95;;;;;;;24.94;41.97;102546.44;5114262;28;20104;-76
2023/05/31 07:32:01;;;;;;;13.75;8.80;;;;;;;25.15;40.58;102560.22;5113141;28;20459;-78
2023/05/31 07:34:26;;;;;;;13.85;8.98;;;;;;;24.34;42.76;102559.25;5113017;28;20370;-79
2023/05/31 07:36:52;;;;;;;12.82;8.10;;;;;;;23.00;45.83;102511.72;5114215;28;20035;-79
2023/05/31 07:39:18;;;;;;;14.85;9.02;;;;;;;21.79;48.33;102543.19;5114406;28;20043;-78
2023/05/31 07:41:43;;;;;;;12.70;8.45;;;;;;;20.65;52.95;102537.56;5095647;28;20433;-80
2023/05/31 07:44:09;;;;;;;13.65;9.55;;;;;;;20.08;56.09;102550.75;5114271;28;20030;-78
2023/05/31 07:46:36;;;;;;;14.48;9.63;;;;;;;19.69;58.21;102552.78;5114028;28;20023;-79
2023/05/31 07:49:02;;;;;;;13.60;8.57;;;;;;;19.37;57.82;102531.50;5114134;28;20378;-79
2023/05/31 07:51:31;;;;;;;13.50;8.63;;;;;;;18.84;59.23;102503.03;5114171;28;20032;-79
2023/05/31 07:53:57;;;;;;;12.88;8.40;;;;;;;18.70;60.13;102494.50;5113995;28;20028;-80
2023/05/31 07:56:22;;;;;;;13.70;9.73;;;;;;;18.87;61.12;102509.81;5114056;28;20039;-79
2023/05/31 07:58:48;;;;;;;15.60;9.27;;;;;;;18.95;61.44;102536.28;5113452;28;20027;-79
2023/05/31 08:01:13;;;;;;;15.32;9.98;;;;;;;18.85;62.51;102546.59;5113857;28;20024;-79
2023/05/31 08:03:40;;;;;;;14.77;9.00;;;;;;;18.79;62.69;102527.88;5095476;28;20035;-78
2023/05/31 08:06:06;;;;;;;13.00;9.25;;;;;;;18.51;61.79;102514.06;5113767;28;20371;-79
2023/05/31 08:08:34;;;;;;;16.55;10.43;;;;;;;18.47;63.81;102537.94;5113892;28;20498;-80
2023/05/31 08:11:01;;;;;;;14.85;10.07;;;;;;;18.51;63.65;102531.56;5113662;28;20030;-79
2023/05/31 08:13:28;;;;;;;16.08;10.38;;;;;;;18.54;64.78;102533.94;5113398;28;20031;-79
2023/05/31 08:15:54;;;;;;;16.50;10.02;;;;;;;18.53;63.88;102530.50;5113761;28;20042;-78
2023/05/31 08:18:19;;;;;;;13.40;9.48;;;;;;;18.51;66.66;102529.78;5113577;28;20471;-79
2023/05/31 08:20:44;;;;;;;15.63;9.95;;;;;;;18.57;65.02;102524.09;5112851;28;20011;-80
2023/05/31 08:23:17;;;;;;;15.85;10.30;;;;;;;18.46;63.58;102525.78;5113502;28;20039;-79
2023/05/31 08:25:43;;;;;;;14.88;9.18;;;;;;;18.43;65.87;102526.84;5113361;28;20019;-79
2023/05/31 08:28:08;;;;;;;15.88;10.63;;;;;;;18.29;67.07;102501.66;5113101;28;20802;-79
2023/05/31 08:30:34;;;;;;;16.85;9.60;;;;;;;18.74;69.42;102530.81;5095236;28;20024;-79
2023/05/31 08:32:59;;;;;;;14.18;9.30;;;;;;;18.74;65.32;102525.56;5113205;28;20027;-79
2023/05/31 08:35:25;;;;;;;17.48;11.07;;;;;;;18.68;64.01;102526.03;5112736;28;20054;-79
2023/05/31 08:37:51;;;;;;;17.52;10.48;;;;;;;18.82;66.54;102522.41;5113196;28;20114;-80
2023/05/31 08:40:16;;;;;;;17.48;10.20;;;;;;;18.87;64.44;102520.28;5113017;28;20098;-79
2023/05/31 08:42:59;;;;;;;15.00;9.82;;;;;;;18.82;64.22;102502.31;5113136;28;20089;-81
2023/05/31 08:45:28;;;;;;;16.30;8.82;;;;;;;18.87;63.61;102520.28;5113042;28;20023;-80
2023/05/31 08:48:13;;;;;;;15.35;9.25;;;;;;;18.98;65.52;102515.16;5113183;28;20080;-78
2023/05/31 08:50:39;;;;;;;15.18;9.77;;;;;;;18.99;65.05;102502.91;5112821;28;20024;-80
2023/05/31 08:53:07;;;;;;;16.67;9.48;;;;;;;19.08;63.97;102510.09;5104159;28;20090;-78
2023/05/31 08:55:33;;;;;;;16.70;8.65;;;;;;;19.17;65.06;102507.66;5092454;28;20024;-78
2023/05/31 08:57:59;;;;;;;12.52;8.40;;;;;;;19.13;62.26;102497.47;5092851;28;20027;-78
2023/05/31 09:00:25;;;;;;;15.95;9.23;;;;;;;19.12;63.96;102486.19;5092552;28;20426;-77
2023/05/31 09:02:51;;;;;;;16.42;9.32;;;;;;;19.26;62.68;102479.09;5092599;28;20031;-78
2023/05/31 09:05:17;;;;;;;17.35;9.45;;;;;;;19.43;63.24;102502.25;5092224;28;20361;-79
2023/05/31 09:07:42;;;;;;;16.92;9.75;;;;;;;19.33;62.37;102488.16;5092514;28;20035;-79
2023/05/31 09:10:08;;;;;;;13.27;8.50;;;;;;;19.46;63.43;102496.78;5093086;28;20016;-79
2023/05/31 09:12:35;;;;;;;13.52;8.38;;;;;;;19.64;61.61;102502.47;5077899;28;20497;-79
2023/05/31 09:15:01;;;;;;;12.98;8.75;;;;;;;19.77;63.27;102505.88;5096667;28;20039;-79
2023/05/31 09:17:26;;;;;;;14.88;8.38;;;;;;;19.65;59.50;102496.28;5096475;28;20024;-79
2023/05/31 09:19:53;;;;;;;15.20;8.05;;;;;;;19.86;63.54;102510.41;5096450;28;20059;-80
2023/05/31 09:22:22;;;;;;;14.98;8.88;;;;;;;19.84;60.78;102506.22;5096450;28;20012;-79
2023/05/31 09:24:58;;;;;;;15.43;8.27;;;;;;;19.89;61.23;102504.94;5096274;28;20547;-79
2023/05/31 09:27:25;;;;;;;17.60;8.88;;;;;;;20.05;62.83;102492.31;5096400;28;20040;-78
2023/05/31 09:29:52;;;;;;;11.43;8.38;;;;;;;19.93;59.46;102490.63;5096202;28;20028;-79
2023/05/31 09:32:18;;;;;;;15.13;8.30;;;;;;;20.05;59.09;102488.84;5096108;28;20023;-79
2023/05/31 09:34:43;;;;;;;14.55;8.10;;;;;;;20.03;58.96;102482.88;5095901;28;20071;-79
2023/05/31 09:37:09;;;;;;;14.77;7.82;;;;;;;20.12;60.19;102476.94;5096194;28;20028;-79
2023/05/31 09:39:34;;;;;;;13.20;7.43;;;;;;;20.26;59.64;102476.72;5095934;28;20031;-78
2023/05/31 09:42:00;;;;;;;15.60;8.13;;;;;;;20.36;57.90;102486.50;5096456;28;20023;-79
2023/05/31 09:44:28;;;;;;;13.55;7.93;;;;;;;20.27;58.28;102483.63;5096088;28;20365;-79
2023/05/31 09:46:54;;;;;;;11.82;7.40;;;;;;;20.27;57.36;102478.38;5077514;28;20036;-78
2023/05/31 09:49:20;;;;;;;12.45;6.60;;;;;;;20.44;58.35;102482.31;5095807;28;20035;-79
2023/05/31 09:51:52;;;;;;;13.85;7.15;;;;;;;20.37;57.28;102467.19;5095800;28;20020;-78
2023/05/31 09:54:22;;;;;;;12.40;6.30;;;;;;;20.37;58.29;102464.56;5095655;28;20373;-79
2023/05/31 09:56:47;;;;;;;14.23;6.53;;;;;;;20.34;57.71;102468.22;5095909;28;20032;-77
2023/05/31 09:59:15;;;;;;;12.73;6.68;;;;;;;20.44;57.27;102463.13;5095941;28;20537;-78
2023/05/31 10:01:40;;;;;;;15.40;7.47;;;;;;;20.47;56.13;102442.75;5095658;28;20024;-79
2023/05/31 10:04:06;;;;;;;11.73;6.32;;;;;;;20.65;56.48;102452.69;5077494;28;20074;-78
2023/05/31 10:06:35;;;;;;;13.77;7.47;;;;;;;20.81;55.17;102461.88;5095542;28;20024;-75
2023/05/31 10:09:04;;;;;;;12.73;6.70;;;;;;;20.75;55.18;102453.66;5095661;28;20024;-78
2023/05/31 10:11:34;;;;;;;12.23;6.65;;;;;;;20.52;55.30;102435.31;5095782;28;20028;-78
2023/05/31 10:14:02;;;;;;;10.63;6.05;;;;;;;20.73;55.68;102463.44;5095246;28;20055;-78
2023/05/31 10:16:35;;;;;;;12.45;5.40;;;;;;;20.85;54.55;102458.06;5095338;28;20542;-79
2023/05/31 10:19:06;;;;;;;11.32;5.05;;;;;;;20.91;55.37;102435.69;5095446;28;20028;-75
2023/05/31 10:21:35;;;;;;;;;;;;;;;21.04;55.64;102457.41;5095205;28;20020;-78
2023/05/31 10:24:08;;;;;;;11.75;4.93;;;;;;;20.96;52.66;102443.22;5095971;28;19986;-78
2023/05/31 10:27:11;;;;;;;10.38;4.82;;;;;;;21.11;53.60;102444.56;5095382;28;20422;-79
2023/05/31 10:29:43;;;;;;;9.57;4.53;;;;;;;21.19;52.70;102439.53;5076790;28;20028;-78
2023/05/31 10:32:31;;;;;;;9.43;4.60;;;;;;;21.30;51.26;102449.19;5095042;28;20028;-80
2023/05/31 10:34:57;;;;;;;8.68;3.80;;;;;;;21.34;48.99;102437.47;5094684;28;20036;-79
2023/05/31 10:37:24;;;;;;;8.73;4.00;;;;;;;21.43;50.37;102424.41;5095111;28;20024;-77
2023/05/31 10:40:12;;;;;;;10.35;4.50;;;;;;;21.46;49.81;102426.75;5094988;28;20031;-79
2023/05/31 10:42:42;;;;;;;11.75;5.57;;;;;;;21.38;51.34;102423.09;5094562;28;20036;-81
2023/05/31 10:45:22;;;;;;;10.30;4.55;;;;;;;21.47;51.86;102424.97;5094896;28;20476;-79
2023/05/31 10:48:12;;;;;;;8.88;4.00;;;;;;;21.49;49.97;102409.88;5095190;28;20101;-78
2023/05/31 10:50:59;;;;;;;7.53;2.80;;;;;;;21.47;49.30;102415.28;5094751;28;20464;-80
2023/05/31 10:53:29;;;;;;;8.88;2.88;;;;;;;21.49;48.05;102409.88;5094453;28;20399;-79
2023/05/31 10:56:09;;;;;;;8.45;3.00;;;;;;;21.46;47.11;102410.97;5094834;28;20419;-81
2023/05/31 10:58:39;;;;;;;7.45;3.13;;;;;;;21.57;46.71;102402.19;5094915;28;20043;-80
2023/05/31 11:01:08;;;;;;;10.48;3.50;;;;;;;21.61;46.72;102406.22;5094872;28;20024;-79
2023/05/31 11:03:34;;;;;;;6.78;2.92;;;;;;;21.67;46.51;102405.69;5094623;28;20032;-76
2023/05/31 11:06:03;;;;;;;9.18;3.40;;;;;;;21.65;46.23;102407.63;5094676;28;20020;-81
2023/05/31 11:08:29;;;;;;;7.47;3.75;;;;;;;21.73;48.84;102386.78;5094360;28;20364;-80
2023/05/31 11:11:31;;;;;;;7.95;3.70;;;;;;;21.96;49.71;102403.22;5094373;28;20049;-81
2023/05/31 11:13:59;;;;;;;7.85;2.80;;;;;;;21.88;44.33;102389.88;5094279;28;20102;-78